createdAt,value
2023-04-13T00:01:25.361Z,95.50
2023-04-13T00:04:04.009Z,41.50
2023-04-13T00:06:39.082Z,31.20
2023-04-13T00:09:11.267Z,41.70
2023-04-13T00:11:43.326Z,31.50
2023-04-13T00:14:15.680Z,27.90
2023-04-13T00:16:47.998Z,31.70
2023-04-13T00:19:20.281Z,62.30
2023-04-13T00:21:53.979Z,166.80
2023-04-13T00:24:26.153Z,127.50
2023-04-13T00:26:58.432Z,76.00
2023-04-13T00:29:30.724Z,57.70
2023-04-13T00:32:03.022Z,47.20
2023-04-13T00:34:36.683Z,34.60
2023-04-13T00:37:08.767Z,36.20
2023-04-13T00:39:40.860Z,38.40
2023-04-13T00:42:13.154Z,35.20
2023-04-13T00:44:47.361Z,30.10
2023-04-13T00:47:26.718Z,36.00
2023-04-13T00:50:01.694Z,33.80
2023-04-13T00:52:38.330Z,26.20
2023-04-13T00:55:13.352Z,19.00
2023-04-13T01:00:18.850Z,18.80
2023-04-13T01:02:52.806Z,18.40
2023-04-13T01:05:27.318Z,21.50
2023-04-13T01:08:09.887Z,23.00
2023-04-13T01:10:50.509Z,22.80
2023-04-13T01:13:27.270Z,24.30
2023-04-13T01:16:06.677Z,28.90
2023-04-13T01:18:45.076Z,36.60
2023-04-13T01:21:24.869Z,44.00
2023-04-13T01:24:17.083Z,46.10
2023-04-13T01:26:57.406Z,27.20
2023-04-13T01:29:31.930Z,30.70
2023-04-13T01:32:04.639Z,59.90
2023-04-13T01:34:38.399Z,52.00
2023-04-13T01:37:13.565Z,46.90
2023-04-13T01:42:26.854Z,28.00
2023-04-13T01:45:00.206Z,27.10
2023-04-13T01:47:34.545Z,27.80
2023-04-13T01:50:34.828Z,28.40
2023-04-13T01:53:20.666Z,35.30
2023-04-13T01:55:53.322Z,31.60
2023-04-13T01:58:33.713Z,31.30
2023-04-13T02:01:11.089Z,29.30
2023-04-13T02:03:43.714Z,24.50
2023-04-13T02:06:16.104Z,27.60
2023-04-13T02:08:50.501Z,27.80
2023-04-13T02:11:28.568Z,27.60
2023-04-13T02:14:00.901Z,27.90
2023-04-13T02:16:33.359Z,27.70
2023-04-13T02:19:05.728Z,26.20
2023-04-13T02:21:38.543Z,24.80
2023-04-13T02:24:11.855Z,45.60
2023-04-13T02:26:44.094Z,27.50
2023-04-13T02:29:16.409Z,27.90
2023-04-13T02:31:50.805Z,31.00
2023-04-13T02:34:23.059Z,35.30
2023-04-13T02:36:55.863Z,35.10
2023-04-13T02:39:28.711Z,33.60
2023-04-13T02:42:02.434Z,33.20
2023-04-13T02:44:35.267Z,30.80
2023-04-13T02:47:08.435Z,35.20
2023-04-13T02:49:41.443Z,30.60
2023-04-13T02:52:23.359Z,37.10
2023-04-13T02:55:16.877Z,25.70
2023-04-13T02:57:54.636Z,28.70
2023-04-13T03:00:28.760Z,25.60
2023-04-13T03:03:04.377Z,27.50
2023-04-13T03:05:40.600Z,29.20
2023-04-13T03:08:14.773Z,25.90
2023-04-13T03:10:57.539Z,25.10
2023-04-13T03:13:31.451Z,24.40
2023-04-13T03:16:04.867Z,29.20
2023-04-13T03:18:37.535Z,26.10
2023-04-13T03:21:10.602Z,26.30
2023-04-13T03:23:51.708Z,29.20
2023-04-13T03:26:25.293Z,36.40
2023-04-13T03:28:58.076Z,43.40
2023-04-13T03:31:31.547Z,52.70
2023-04-13T03:34:03.882Z,56.70
2023-04-13T03:36:36.456Z,53.40
2023-04-13T03:39:08.795Z,47.30
2023-04-13T03:41:42.493Z,32.40
2023-04-13T03:44:14.989Z,32.70
2023-04-13T03:46:47.267Z,37.00
2023-04-13T03:49:27.297Z,47.10
2023-04-13T03:52:00.111Z,41.40
2023-04-13T03:54:32.948Z,34.40
2023-04-13T03:57:05.338Z,29.30
2023-04-13T03:59:38.428Z,29.50
2023-04-13T04:02:11.119Z,37.20
2023-04-13T04:04:45.173Z,30.80
2023-04-13T04:07:23.208Z,37.60
2023-04-13T04:09:55.762Z,57.90
2023-04-13T04:12:28.781Z,59.00
2023-04-13T04:15:00.989Z,53.80
2023-04-13T04:17:34.875Z,53.30
2023-04-13T04:20:10.214Z,50.00
2023-04-13T04:22:44.940Z,62.00
2023-04-13T04:25:22.063Z,62.40
2023-04-13T04:27:57.876Z,50.00
2023-04-13T04:30:33.964Z,37.90
2023-04-13T04:33:07.414Z,40.50
2023-04-13T04:35:50.293Z,29.10
2023-04-13T04:38:24.493Z,32.00
2023-04-13T04:40:57.921Z,26.20
2023-04-13T04:43:32.297Z,36.90
2023-04-13T04:46:05.074Z,40.90
2023-04-13T04:48:39.249Z,45.20
2023-04-13T04:51:11.755Z,42.20
2023-04-13T04:53:44.274Z,66.10
2023-04-13T04:56:16.404Z,66.00
2023-04-13T04:58:52.818Z,55.50
2023-04-13T05:01:27.569Z,45.50
2023-04-13T05:04:08.387Z,33.60
2023-04-13T05:06:44.776Z,34.80
2023-04-13T05:09:20.732Z,35.40
2023-04-13T05:11:56.437Z,33.40
2023-04-13T05:14:28.581Z,38.40
2023-04-13T05:17:01.590Z,39.70
2023-04-13T05:19:38.612Z,41.50
2023-04-13T05:22:23.990Z,36.70
2023-04-13T05:25:01.746Z,34.90
2023-04-13T05:27:38.328Z,37.60
2023-04-13T05:30:12.570Z,41.80
2023-04-13T05:32:45.543Z,36.60
2023-04-13T05:35:17.813Z,41.20
2023-04-13T05:37:50.437Z,56.20
2023-04-13T05:40:29.093Z,35.90
2023-04-13T05:43:03.467Z,41.00
2023-04-13T05:45:38.196Z,38.10
2023-04-13T05:48:17.031Z,40.30
2023-04-13T05:50:50.210Z,62.80
2023-04-13T05:53:23.575Z,50.60
2023-04-13T05:55:59.343Z,36.70
2023-04-13T05:58:31.854Z,28.90
2023-04-13T06:01:24.436Z,38.90
2023-04-13T06:03:58.110Z,75.20
2023-04-13T06:06:30.564Z,55.00
2023-04-13T06:09:05.394Z,40.30
2023-04-13T06:11:37.977Z,40.90
2023-04-13T06:14:10.201Z,45.60
2023-04-13T06:16:42.286Z,72.80
2023-04-13T06:19:14.922Z,43.20
2023-04-13T06:21:47.111Z,34.60
2023-04-13T06:24:19.590Z,42.60
2023-04-13T06:26:52.411Z,39.00
2023-04-13T06:29:24.602Z,27.80
2023-04-13T06:32:04.557Z,28.20
2023-04-13T06:34:36.990Z,27.50
2023-04-13T06:37:09.812Z,32.50
2023-04-13T06:39:50.168Z,39.40
2023-04-13T06:42:22.451Z,35.60
2023-04-13T06:45:09.323Z,23.50
2023-04-13T06:47:44.912Z,26.00
2023-04-13T06:50:18.326Z,27.60
2023-04-13T06:52:51.638Z,21.70
2023-04-13T06:55:25.099Z,38.30
2023-04-13T06:57:57.486Z,22.30
2023-04-13T07:00:30.580Z,23.70
2023-04-13T07:03:04.918Z,20.00
2023-04-13T07:05:38.983Z,22.50
2023-04-13T07:08:16.073Z,45.20
2023-04-13T07:10:53.574Z,47.10
2023-04-13T07:13:32.592Z,24.90
2023-04-13T07:16:05.380Z,20.10
2023-04-13T07:18:39.966Z,16.00
2023-04-13T07:21:12.598Z,14.60
2023-04-13T07:24:04.115Z,16.50
2023-04-13T07:26:36.465Z,21.50
2023-04-13T07:29:13.580Z,21.10
2023-04-13T07:31:48.744Z,15.80
2023-04-13T07:34:22.048Z,17.50
2023-04-13T07:36:54.681Z,20.10
2023-04-13T07:39:27.996Z,20.60
2023-04-13T07:42:00.276Z,22.70
2023-04-13T07:44:39.610Z,20.10
2023-04-13T07:47:14.213Z,18.60
2023-04-13T07:49:47.570Z,19.10
2023-04-13T07:52:22.864Z,13.90
2023-04-13T07:54:56.452Z,28.50
2023-04-13T07:57:32.838Z,16.00
2023-04-13T08:02:46.208Z,18.40
2023-04-13T08:05:22.994Z,16.60
2023-04-13T08:07:55.947Z,14.50
2023-04-13T08:10:28.321Z,15.50
2023-04-13T08:13:01.282Z,26.00
2023-04-13T08:15:33.609Z,16.20
2023-04-13T08:18:06.763Z,16.20
2023-04-13T08:20:39.036Z,16.60
2023-04-13T08:23:12.537Z,16.40
2023-04-13T08:25:45.693Z,69.90
2023-04-13T08:28:20.657Z,18.40
2023-04-13T08:30:52.868Z,13.20
2023-04-13T08:33:25.116Z,15.80
2023-04-13T08:35:57.248Z,16.00
2023-04-13T08:38:29.655Z,14.60
2023-04-13T08:41:03.557Z,12.40
2023-04-13T08:43:37.718Z,12.50
2023-04-13T08:46:11.501Z,13.50
2023-04-13T08:49:05.364Z,11.70
2023-04-13T08:51:47.521Z,14.00
2023-04-13T08:54:19.708Z,13.40
2023-04-13T08:56:52.113Z,20.00
2023-04-13T08:59:29.374Z,18.90
2023-04-13T09:02:06.872Z,16.00
2023-04-13T09:04:46.160Z,12.90
2023-04-13T09:07:26.702Z,16.00
2023-04-13T09:10:01.669Z,13.60
2023-04-13T09:12:34.280Z,12.50
2023-04-13T09:15:09.238Z,19.40
2023-04-13T09:17:48.508Z,14.80
2023-04-13T09:20:23.246Z,14.40
2023-04-13T09:22:55.487Z,14.40
2023-04-13T09:25:29.425Z,12.60
2023-04-13T09:28:02.144Z,17.00
2023-04-13T09:30:35.546Z,15.60
2023-04-13T09:33:10.032Z,17.80
2023-04-13T09:35:42.426Z,15.90
2023-04-13T09:38:16.686Z,26.40
2023-04-13T09:40:54.556Z,20.10
2023-04-13T09:43:37.791Z,24.70
2023-04-13T09:46:15.084Z,20.30
2023-04-13T09:48:47.605Z,21.50
2023-04-13T09:51:20.926Z,23.40
2023-04-13T09:53:53.830Z,18.10
2023-04-13T09:56:27.325Z,19.50
2023-04-13T09:58:59.841Z,24.60
2023-04-13T10:01:32.382Z,19.70
2023-04-13T10:04:07.850Z,20.20
2023-04-13T10:06:43.463Z,22.20
2023-04-13T10:09:16.189Z,17.90
2023-04-13T10:11:51.540Z,22.70
2023-04-13T10:14:27.064Z,20.30
2023-04-13T10:17:25.084Z,21.70
2023-04-13T10:20:00.991Z,19.90
2023-04-13T10:22:33.222Z,21.20
2023-04-13T10:25:09.592Z,20.10
2023-04-13T10:27:44.880Z,20.30
2023-04-13T10:30:19.566Z,21.80
2023-04-13T10:35:22.689Z,20.40
2023-04-13T10:38:00.741Z,19.70
2023-04-13T10:40:42.712Z,19.80
2023-04-13T10:43:25.498Z,20.10
2023-04-13T10:46:09.296Z,19.00
2023-04-13T10:48:43.538Z,20.70
2023-04-13T10:51:15.818Z,22.60
2023-04-13T10:53:49.798Z,23.40
2023-04-13T10:56:22.000Z,20.00
2023-04-13T10:58:57.093Z,21.00
2023-04-13T11:01:30.833Z,21.80
2023-04-13T11:04:09.873Z,23.40
2023-04-13T11:06:44.731Z,18.90
2023-04-13T11:09:17.325Z,15.80
2023-04-13T11:11:54.137Z,15.70
2023-04-13T11:14:26.543Z,15.60
2023-04-13T11:16:58.948Z,16.60
2023-04-13T11:19:31.098Z,17.60
2023-04-13T11:22:03.223Z,19.10
2023-04-13T11:24:35.986Z,20.20
2023-04-13T11:27:17.145Z,19.30
2023-04-13T11:29:58.010Z,17.90
2023-04-13T11:32:30.181Z,17.70
2023-04-13T11:35:12.162Z,17.80
2023-04-13T11:37:47.091Z,20.80
2023-04-13T11:40:26.040Z,23.50
2023-04-13T11:43:01.211Z,17.60
2023-04-13T11:45:33.785Z,18.90
2023-04-13T11:48:07.926Z,18.80
2023-04-13T11:50:41.321Z,17.00
2023-04-13T11:53:14.560Z,18.90
2023-04-13T11:55:53.229Z,21.30
2023-04-13T11:58:27.415Z,18.50
2023-04-13T12:01:03.105Z,18.10
2023-04-13T12:03:57.098Z,18.10
2023-04-13T12:06:36.268Z,17.40
2023-04-13T12:09:13.425Z,17.60
2023-04-13T12:12:08.192Z,19.50
2023-04-13T12:15:04.786Z,17.70
2023-04-13T12:17:49.992Z,18.10
2023-04-13T12:20:35.090Z,26.70
2023-04-13T12:23:22.452Z,17.70
2023-04-13T12:26:00.578Z,27.80
2023-04-13T12:28:34.752Z,16.70
2023-04-13T12:31:09.975Z,16.50
2023-04-13T12:33:42.545Z,16.70
2023-04-13T12:36:14.600Z,30.70
2023-04-13T12:38:46.968Z,21.20
2023-04-13T12:41:19.103Z,20.00
2023-04-13T12:43:51.214Z,19.60
2023-04-13T12:46:25.202Z,15.60
2023-04-13T12:48:57.668Z,17.30
2023-04-13T12:51:31.572Z,18.10
2023-04-13T12:54:03.886Z,16.00
2023-04-13T12:56:36.104Z,16.70
2023-04-13T12:59:08.586Z,15.30
2023-04-13T13:01:40.866Z,17.90
2023-04-13T13:04:13.159Z,16.10
2023-04-13T13:06:45.873Z,14.50
2023-04-13T13:09:18.453Z,16.60
2023-04-13T13:11:50.713Z,16.70
2023-04-13T13:14:22.894Z,15.80
2023-04-13T13:16:54.993Z,18.60
2023-04-13T13:19:27.201Z,21.20
2023-04-13T13:21:59.908Z,20.40
2023-04-13T13:24:32.403Z,16.00
2023-04-13T13:29:39.867Z,17.80
2023-04-13T13:32:12.105Z,15.90
2023-04-13T13:34:44.234Z,17.30
2023-04-13T13:37:16.363Z,18.50
2023-04-13T13:39:48.670Z,15.40
2023-04-13T13:42:21.145Z,15.80
2023-04-13T13:44:53.399Z,19.20
2023-04-13T13:47:25.789Z,17.50
2023-04-13T13:49:58.043Z,17.60
2023-04-13T13:52:41.677Z,15.40
2023-04-13T13:55:20.553Z,17.10
2023-04-13T13:57:52.727Z,17.40
2023-04-13T14:00:26.013Z,19.70
2023-04-13T14:02:58.334Z,16.50
2023-04-13T14:05:30.564Z,16.80
2023-04-13T14:08:02.713Z,20.70
2023-04-13T14:10:35.999Z,24.20
2023-04-13T14:13:08.174Z,30.90
2023-04-13T14:15:40.429Z,20.00
2023-04-13T14:18:12.725Z,21.90
2023-04-13T14:20:44.965Z,24.20
2023-04-13T14:23:17.213Z,18.70
2023-04-13T14:25:49.636Z,23.80
2023-04-13T14:28:21.878Z,20.20
2023-04-13T14:30:54.066Z,18.20
2023-04-13T14:33:26.540Z,16.90
2023-04-13T14:35:58.756Z,21.40
2023-04-13T14:38:30.885Z,22.00
2023-04-13T14:41:03.065Z,20.30
2023-04-13T14:43:35.243Z,27.00
2023-04-13T14:46:07.676Z,23.60
2023-04-13T14:48:40.016Z,18.10
2023-04-13T14:51:18.553Z,16.80
2023-04-13T14:53:54.258Z,29.20
2023-04-13T14:56:27.801Z,21.40
2023-04-13T14:59:00.488Z,17.40
2023-04-13T15:01:33.117Z,16.30
2023-04-13T15:04:05.752Z,16.70
2023-04-13T15:06:40.246Z,17.50
2023-04-13T15:09:13.110Z,18.80
2023-04-13T15:11:45.752Z,19.40
2023-04-13T15:14:17.907Z,18.40
2023-04-13T15:16:50.012Z,21.80
2023-04-13T15:19:22.201Z,25.30
2023-04-13T15:21:54.352Z,17.00
2023-04-13T15:24:26.563Z,18.50
2023-04-13T15:26:58.870Z,17.50
2023-04-13T15:29:31.084Z,16.80
2023-04-13T15:32:03.305Z,17.80
2023-04-13T15:34:35.800Z,17.30
2023-04-13T15:37:07.982Z,18.20
2023-04-13T15:39:40.271Z,15.60
2023-04-13T15:42:13.085Z,18.00
2023-04-13T15:44:45.588Z,21.00
2023-04-13T15:47:17.820Z,47.30
2023-04-13T15:49:49.932Z,21.30
2023-04-13T15:52:22.279Z,17.30
2023-04-13T15:54:55.236Z,17.00
2023-04-13T15:57:27.401Z,19.00
2023-04-13T15:59:59.444Z,21.00
2023-04-13T16:02:32.393Z,19.40
2023-04-13T16:05:05.088Z,19.50
2023-04-13T16:07:37.282Z,24.70
2023-04-13T16:10:17.503Z,20.80
2023-04-13T16:12:50.169Z,23.20
2023-04-13T16:15:23.018Z,32.90
2023-04-13T16:17:57.111Z,21.20
2023-04-13T16:20:29.923Z,17.30
2023-04-13T16:23:04.994Z,50.30
2023-04-13T16:25:37.689Z,44.40
2023-04-13T16:28:10.854Z,33.60
2023-04-13T16:30:42.970Z,84.20
2023-04-13T16:33:15.164Z,37.30
2023-04-13T16:35:47.421Z,134.80
2023-04-13T16:38:19.653Z,44.60
2023-04-13T16:40:51.842Z,55.40
2023-04-13T16:43:24.026Z,31.90
2023-04-13T16:45:56.096Z,41.60
2023-04-13T16:48:29.484Z,39.60
2023-04-13T16:51:02.764Z,42.90
2023-04-13T16:53:34.959Z,37.40
2023-04-13T16:56:09.089Z,35.30
2023-04-13T16:58:41.388Z,31.10
2023-04-13T17:01:13.663Z,35.90
2023-04-13T17:03:45.883Z,26.50
2023-04-13T17:06:18.107Z,23.20
2023-04-13T17:08:50.602Z,19.50
2023-04-13T17:11:23.651Z,18.40
2023-04-13T17:13:56.108Z,22.70
2023-04-13T17:16:29.636Z,22.30
2023-04-13T17:19:02.309Z,22.50
2023-04-13T17:21:34.920Z,32.30
2023-04-13T17:24:09.204Z,38.10
2023-04-13T17:26:41.644Z,41.20
2023-04-13T17:29:13.873Z,33.70
2023-04-13T17:31:46.162Z,37.80
2023-04-13T17:34:18.522Z,35.50
2023-04-13T17:36:51.877Z,35.60
2023-04-13T17:39:24.591Z,34.60
2023-04-13T17:41:57.114Z,34.30
2023-04-13T17:44:29.226Z,25.50
2023-04-13T17:47:01.455Z,36.00
2023-04-13T17:49:34.428Z,82.20
2023-04-13T17:52:06.606Z,60.30
2023-04-13T17:54:40.629Z,38.50
2023-04-13T17:57:13.360Z,30.70
2023-04-13T17:59:46.820Z,27.70
2023-04-13T18:02:20.340Z,38.60
2023-04-13T18:04:52.770Z,33.70
2023-04-13T18:07:26.424Z,44.50
2023-04-13T18:09:58.581Z,59.40
2023-04-13T18:12:30.745Z,79.60
2023-04-13T18:15:03.241Z,81.20
2023-04-13T18:17:36.792Z,84.00
2023-04-13T18:20:11.244Z,92.70
2023-04-13T18:22:43.456Z,93.10
2023-04-13T18:25:15.829Z,99.60
2023-04-13T18:27:48.153Z,107.90
2023-04-13T18:30:20.426Z,110.30
2023-04-13T18:32:52.793Z,122.40
2023-04-13T18:35:24.894Z,120.00
2023-04-13T18:37:57.660Z,101.30
2023-04-13T18:40:30.219Z,84.60
2023-04-13T18:43:02.756Z,86.90
2023-04-13T18:45:35.006Z,86.00
2023-04-13T18:48:09.929Z,88.90
2023-04-13T18:50:42.244Z,84.20
2023-04-13T18:53:14.376Z,92.40
2023-04-13T18:55:51.268Z,119.70
2023-04-13T18:58:23.686Z,127.20
2023-04-13T19:00:56.273Z,162.80
2023-04-13T19:03:28.782Z,188.30
2023-04-13T19:06:01.277Z,203.60
2023-04-13T19:08:33.599Z,212.90
2023-04-13T19:11:06.057Z,228.50
2023-04-13T19:13:38.582Z,236.90
2023-04-13T19:16:11.334Z,216.90
2023-04-13T19:18:43.617Z,184.00
2023-04-13T19:21:18.518Z,179.30
2023-04-13T19:23:50.815Z,227.70
2023-04-13T19:26:23.128Z,235.60
2023-04-13T19:28:57.604Z,180.20
2023-04-13T19:31:29.972Z,179.40
2023-04-13T19:34:02.666Z,213.40
2023-04-13T19:36:37.312Z,583.10
2023-04-13T19:39:10.258Z,324.80
2023-04-13T19:41:42.898Z,459.30
2023-04-13T19:44:16.992Z,388.70
2023-04-13T19:46:49.752Z,197.50
2023-04-13T19:49:22.190Z,181.60
2023-04-13T19:51:54.643Z,108.80
2023-04-13T19:54:27.314Z,87.80
2023-04-13T19:56:59.869Z,93.30
2023-04-13T19:59:32.461Z,62.60
2023-04-13T20:02:05.225Z,55.80
2023-04-13T20:04:38.902Z,74.10
2023-04-13T20:07:11.526Z,46.80
2023-04-13T20:09:43.872Z,33.00
2023-04-13T20:12:16.759Z,26.00
2023-04-13T20:14:49.607Z,21.60
2023-04-13T20:17:22.030Z,22.10
2023-04-13T20:19:55.507Z,27.10
2023-04-13T20:22:28.341Z,36.80
2023-04-13T20:25:00.833Z,24.10
2023-04-13T20:27:34.380Z,26.50
2023-04-13T20:30:09.487Z,20.30
2023-04-13T20:32:42.023Z,19.00
2023-04-13T20:35:15.193Z,17.40
2023-04-13T20:37:47.663Z,19.30
2023-04-13T20:40:27.024Z,18.00
2023-04-13T20:43:00.114Z,18.30
2023-04-13T20:45:32.839Z,16.10
2023-04-13T20:50:41.804Z,15.90
2023-04-13T20:53:15.118Z,15.90
2023-04-13T20:55:48.268Z,15.40
2023-04-13T20:58:21.231Z,18.00
2023-04-13T21:00:53.819Z,17.80
2023-04-13T21:03:32.011Z,17.40
2023-04-13T21:06:04.784Z,30.30
2023-04-13T21:08:37.238Z,25.30
2023-04-13T21:11:09.661Z,20.50
2023-04-13T21:13:42.115Z,17.10
2023-04-13T21:16:15.152Z,17.40
2023-04-13T21:18:47.866Z,18.60
2023-04-13T21:21:23.372Z,16.90
2023-04-13T21:23:56.344Z,15.70
2023-04-13T21:26:29.080Z,17.50
2023-04-13T21:29:01.611Z,16.70
2023-04-13T21:31:34.150Z,15.90
2023-04-13T21:34:06.616Z,18.40
2023-04-13T21:39:14.588Z,15.60
2023-04-13T21:41:47.190Z,18.20
2023-04-13T21:44:29.249Z,19.10
2023-04-13T21:47:01.943Z,29.10
2023-04-13T21:49:34.297Z,23.00
2023-04-13T21:52:06.606Z,19.40
2023-04-13T21:54:38.986Z,25.30
2023-04-13T21:57:11.371Z,17.80
2023-04-13T21:59:44.290Z,20.00
2023-04-13T22:02:16.833Z,15.30
2023-04-13T22:04:49.256Z,23.00
2023-04-13T22:07:28.602Z,24.50
2023-04-13T22:10:12.773Z,14.70
2023-04-13T22:12:45.074Z,16.90
2023-04-13T22:15:17.501Z,18.90
2023-04-13T22:17:49.856Z,18.10
2023-04-13T22:20:22.197Z,16.40
2023-04-13T22:22:54.472Z,15.30
2023-04-13T22:25:28.105Z,14.60
2023-04-13T22:28:00.421Z,14.90
2023-04-13T22:30:32.944Z,13.10
2023-04-13T22:33:05.385Z,15.30
2023-04-13T22:35:38.451Z,14.40
2023-04-13T22:38:11.299Z,12.70
2023-04-13T22:40:43.631Z,10.10
2023-04-13T22:43:16.353Z,11.60
2023-04-13T22:45:48.723Z,11.80
2023-04-13T22:48:21.408Z,9.80
2023-04-13T22:50:53.945Z,9.60
2023-04-13T22:53:27.251Z,10.90
2023-04-13T22:56:00.914Z,9.70
2023-04-13T22:58:33.433Z,9.60
2023-04-13T23:01:06.124Z,8.80
2023-04-13T23:03:38.606Z,9.90
2023-04-13T23:06:11.308Z,10.90
2023-04-13T23:08:43.592Z,9.30
2023-04-13T23:11:16.080Z,8.50
2023-04-13T23:13:48.460Z,9.00
2023-04-13T23:16:20.832Z,8.20
2023-04-13T23:18:53.299Z,8.50
2023-04-13T23:21:26.559Z,8.60
2023-04-13T23:23:58.957Z,9.00
2023-04-13T23:26:31.313Z,8.60
2023-04-13T23:29:03.817Z,8.60
2023-04-13T23:31:36.416Z,10.70
2023-04-13T23:34:08.756Z,9.70
2023-04-13T23:36:41.349Z,11.00
2023-04-13T23:39:13.679Z,9.90
2023-04-13T23:41:46.081Z,10.50
2023-04-13T23:44:18.411Z,9.10
2023-04-13T23:46:50.870Z,9.10
2023-04-13T23:49:23.867Z,8.00
2023-04-13T23:51:56.281Z,10.40
2023-04-13T23:54:28.674Z,12.90
2023-04-13T23:57:01.735Z,14.00
2023-04-13T23:59:34.167Z,12.90
